createdAt,value
2022-10-10T00:01:24.367Z,9.11
2022-10-10T00:03:51.996Z,8.95
2022-10-10T00:06:20.029Z,8.93
2022-10-10T00:08:47.520Z,8.88
2022-10-10T00:11:22.609Z,8.93
2022-10-10T00:13:50.474Z,8.82
2022-10-10T00:16:19.829Z,8.61
2022-10-10T00:18:47.054Z,8.71
2022-10-10T00:21:14.028Z,8.49
2022-10-10T00:23:41.971Z,8.55
2022-10-10T00:26:09.540Z,8.59
2022-10-10T00:28:38.758Z,8.39
2022-10-10T00:31:08.928Z,8.58
2022-10-10T00:33:37.680Z,8.47
2022-10-10T00:36:06.541Z,8.50
2022-10-10T00:38:34.099Z,8.59
2022-10-10T00:41:01.425Z,8.77
2022-10-10T00:43:29.181Z,8.78
2022-10-10T00:45:56.208Z,8.92
2022-10-10T00:48:25.187Z,8.80
2022-10-10T00:51:16.850Z,8.62
2022-10-10T00:53:49.603Z,8.54
2022-10-10T00:56:23.231Z,8.25
2022-10-10T00:58:54.143Z,8.31
2022-10-10T01:01:21.054Z,8.24
2022-10-10T01:03:48.350Z,8.24
2022-10-10T01:06:15.423Z,8.27
2022-10-10T01:08:43.126Z,8.16
2022-10-10T01:11:38.411Z,8.07
2022-10-10T01:15:02.012Z,8.08
2022-10-10T01:17:46.577Z,8.07
2022-10-10T01:20:56.960Z,8.28
2022-10-10T01:23:38.695Z,8.20
2022-10-10T01:26:43.226Z,8.36
2022-10-10T01:29:31.403Z,8.24
2022-10-10T01:32:11.071Z,8.09
2022-10-10T01:35:11.359Z,8.32
2022-10-10T01:37:53.999Z,8.07
2022-10-10T01:40:39.366Z,8.17
2022-10-10T01:43:08.998Z,8.47
2022-10-10T01:45:36.020Z,8.60
2022-10-10T01:48:05.828Z,8.37
2022-10-10T01:50:54.248Z,8.30
2022-10-10T01:53:42.161Z,8.23
2022-10-10T01:56:35.458Z,8.43
2022-10-10T01:59:26.475Z,8.11
2022-10-10T02:02:02.334Z,8.02
2022-10-10T02:05:05.872Z,8.05
2022-10-10T02:08:16.690Z,8.12
2022-10-10T02:11:00.696Z,8.10
2022-10-10T02:13:39.795Z,8.21
2022-10-10T02:16:14.469Z,8.15
2022-10-10T02:18:45.531Z,8.18
2022-10-10T02:21:14.496Z,8.24
2022-10-10T02:23:44.064Z,8.42
2022-10-10T02:26:14.994Z,8.24
2022-10-10T02:29:03.774Z,8.28
2022-10-10T02:31:45.829Z,8.15
2022-10-10T02:34:21.222Z,8.20
2022-10-10T02:36:57.231Z,8.19
2022-10-10T02:39:30.711Z,7.90
2022-10-10T02:41:57.841Z,8.05
2022-10-10T02:44:26.195Z,8.07
2022-10-10T02:46:53.412Z,8.00
2022-10-10T02:49:30.370Z,7.94
2022-10-10T02:51:57.627Z,7.93
2022-10-10T02:54:28.151Z,8.11
2022-10-10T02:56:55.072Z,8.17
2022-10-10T02:59:22.071Z,7.93
2022-10-10T03:01:48.949Z,8.09
2022-10-10T03:04:16.838Z,8.06
2022-10-10T03:06:43.926Z,8.08
2022-10-10T03:09:10.979Z,8.05
2022-10-10T03:11:37.995Z,8.04
2022-10-10T03:14:04.964Z,7.83
2022-10-10T03:16:32.055Z,7.83
2022-10-10T03:18:59.059Z,7.64
2022-10-10T03:21:26.061Z,7.44
2022-10-10T03:23:53.006Z,7.46
2022-10-10T03:26:20.062Z,7.33
2022-10-10T03:28:47.057Z,7.38
2022-10-10T03:31:13.986Z,7.44
2022-10-10T03:33:40.949Z,7.45
2022-10-10T03:36:08.080Z,7.64
2022-10-10T03:38:35.169Z,7.55
2022-10-10T03:41:02.059Z,7.68
2022-10-10T03:43:28.994Z,7.57
2022-10-10T03:45:55.879Z,7.60
2022-10-10T03:48:22.997Z,7.60
2022-10-10T03:50:50.013Z,7.55
2022-10-10T03:53:16.936Z,7.52
2022-10-10T03:55:44.115Z,7.69
2022-10-10T03:58:11.815Z,7.78
2022-10-10T04:00:39.066Z,7.70
2022-10-10T04:03:06.696Z,7.62
2022-10-10T04:05:38.995Z,7.68
2022-10-10T04:08:06.575Z,7.62
2022-10-10T04:10:33.677Z,7.59
2022-10-10T04:13:00.580Z,7.71
2022-10-10T04:15:27.671Z,7.62
2022-10-10T04:17:54.633Z,7.48
2022-10-10T04:20:21.552Z,7.37
2022-10-10T04:22:48.800Z,7.07
2022-10-10T04:25:16.150Z,6.91
2022-10-10T04:27:46.236Z,6.92
2022-10-10T04:30:13.648Z,7.01
2022-10-10T04:32:40.776Z,6.92
2022-10-10T04:35:08.243Z,6.99
2022-10-10T04:37:36.176Z,7.31
2022-10-10T04:40:05.010Z,7.26
2022-10-10T04:42:32.039Z,7.38
2022-10-10T04:44:58.946Z,7.45
2022-10-10T04:47:25.972Z,7.46
2022-10-10T04:49:52.868Z,7.35
2022-10-10T04:52:19.944Z,7.30
2022-10-10T04:54:46.805Z,7.51
2022-10-10T04:57:13.788Z,7.61
2022-10-10T04:59:40.772Z,7.55
2022-10-10T05:02:07.769Z,7.68
2022-10-10T05:04:34.855Z,7.79
2022-10-10T05:07:01.788Z,7.86
2022-10-10T05:09:28.774Z,8.00
2022-10-10T05:11:55.675Z,8.28
2022-10-10T05:14:22.591Z,8.38
2022-10-10T05:16:49.588Z,8.25
2022-10-10T05:19:16.585Z,8.29
2022-10-10T05:21:43.496Z,8.43
2022-10-10T05:24:10.523Z,8.51
2022-10-10T05:26:42.232Z,8.93
2022-10-10T05:29:10.193Z,8.91
2022-10-10T05:31:37.195Z,8.93
2022-10-10T05:34:04.340Z,8.90
2022-10-10T05:36:31.374Z,9.06
2022-10-10T05:38:58.340Z,9.08
2022-10-10T05:41:25.295Z,9.16
2022-10-10T05:43:52.185Z,9.22
2022-10-10T05:46:20.394Z,9.15
2022-10-10T05:48:47.315Z,9.01
2022-10-10T05:51:14.350Z,8.99
2022-10-10T05:53:41.318Z,9.01
2022-10-10T05:56:08.445Z,8.97
2022-10-10T05:58:35.405Z,9.08
2022-10-10T06:01:05.328Z,9.24
2022-10-10T06:03:33.569Z,9.18
2022-10-10T06:06:00.930Z,9.19
2022-10-10T06:08:28.279Z,9.19
2022-10-10T06:11:04.596Z,9.22
2022-10-10T06:13:31.704Z,9.29
2022-10-10T06:15:58.707Z,9.37
2022-10-10T06:18:26.024Z,9.50
2022-10-10T06:20:53.147Z,9.69
2022-10-10T06:23:20.619Z,9.74
2022-10-10T06:25:47.661Z,9.76
2022-10-10T06:28:14.680Z,10.01
2022-10-10T06:30:48.377Z,9.95
2022-10-10T06:33:16.231Z,10.10
2022-10-10T06:35:45.431Z,9.96
2022-10-10T06:38:13.344Z,10.09
2022-10-10T06:40:40.814Z,10.08
2022-10-10T06:43:12.081Z,10.13
2022-10-10T06:45:42.247Z,10.23
2022-10-10T06:48:11.130Z,10.26
2022-10-10T06:50:38.104Z,10.21
2022-10-10T06:53:05.603Z,10.20
2022-10-10T06:55:32.782Z,10.35
2022-10-10T06:57:59.728Z,10.52
2022-10-10T07:00:26.835Z,10.68
2022-10-10T07:02:54.024Z,11.03
2022-10-10T07:05:21.106Z,11.19
2022-10-10T07:07:48.068Z,11.18
2022-10-10T07:10:16.059Z,11.05
2022-10-10T07:12:44.958Z,11.13
2022-10-10T07:15:12.536Z,10.93
2022-10-10T07:17:39.572Z,11.03
2022-10-10T07:20:07.481Z,10.90
2022-10-10T07:22:34.972Z,11.13
2022-10-10T07:25:01.992Z,11.30
2022-10-10T07:27:28.915Z,11.55
2022-10-10T07:29:55.948Z,11.81
2022-10-10T07:32:22.875Z,12.12
2022-10-10T07:34:50.931Z,12.43
2022-10-10T07:37:18.149Z,12.69
2022-10-10T07:39:45.162Z,12.65
2022-10-10T07:42:12.196Z,12.72
2022-10-10T07:44:39.064Z,12.90
2022-10-10T07:47:06.374Z,12.77
2022-10-10T07:49:33.347Z,12.79
2022-10-10T07:52:01.631Z,12.81
2022-10-10T07:54:30.559Z,12.92
2022-10-10T07:56:58.507Z,13.24
2022-10-10T07:59:25.909Z,13.42
2022-10-10T08:01:52.957Z,13.43
2022-10-10T08:04:20.462Z,13.74
2022-10-10T08:06:48.311Z,13.90
2022-10-10T08:09:15.547Z,14.22
2022-10-10T08:11:42.579Z,14.51
2022-10-10T08:14:09.733Z,14.39
2022-10-10T08:16:36.688Z,14.57
2022-10-10T08:19:04.501Z,14.84
2022-10-10T08:21:31.616Z,14.97
2022-10-10T08:23:58.644Z,14.79
2022-10-10T08:26:25.662Z,14.76
2022-10-10T08:28:52.713Z,14.94
2022-10-10T08:31:21.959Z,15.25
2022-10-10T08:33:51.057Z,15.06
2022-10-10T08:36:23.268Z,15.17
2022-10-10T08:38:52.530Z,15.15
2022-10-10T08:41:52.825Z,15.36
2022-10-10T08:44:25.619Z,15.25
2022-10-10T08:47:03.489Z,15.39
2022-10-10T08:49:48.490Z,15.66
2022-10-10T08:52:44.466Z,15.66
2022-10-10T08:55:31.074Z,15.83
2022-10-10T08:58:21.107Z,16.02
2022-10-10T09:01:02.926Z,16.27
2022-10-10T09:03:45.214Z,16.36
2022-10-10T09:06:59.795Z,16.55
2022-10-10T09:10:02.488Z,16.60
2022-10-10T09:13:09.510Z,16.61
2022-10-10T09:16:02.604Z,16.91
2022-10-10T09:18:46.046Z,17.21
2022-10-10T09:21:22.746Z,17.29
2022-10-10T09:24:25.256Z,17.40
2022-10-10T09:27:00.556Z,17.46
2022-10-10T09:29:49.049Z,17.53
2022-10-10T09:32:25.699Z,17.81
2022-10-10T09:35:19.162Z,17.95
2022-10-10T09:37:51.554Z,18.22
2022-10-10T09:40:31.652Z,18.27
2022-10-10T09:43:10.690Z,18.23
2022-10-10T09:45:46.228Z,18.16
2022-10-10T09:48:13.422Z,18.25
2022-10-10T09:50:43.168Z,18.24
2022-10-10T09:53:17.506Z,18.33
2022-10-10T09:55:46.715Z,18.62
2022-10-10T09:58:38.258Z,18.84
2022-10-10T10:01:33.269Z,18.95
2022-10-10T10:04:28.811Z,19.09
2022-10-10T10:07:17.975Z,19.31
2022-10-10T10:10:04.264Z,19.61
2022-10-10T10:12:41.265Z,19.66
2022-10-10T10:15:26.576Z,19.99
2022-10-10T10:18:27.584Z,19.92
2022-10-10T10:21:06.449Z,19.85
2022-10-10T10:23:37.990Z,19.75
2022-10-10T10:26:18.729Z,19.92
2022-10-10T10:28:48.377Z,20.09
2022-10-10T10:31:35.552Z,20.18
2022-10-10T10:34:38.928Z,20.27
2022-10-10T10:37:23.934Z,20.24
2022-10-10T10:39:57.201Z,20.44
2022-10-10T10:43:16.558Z,20.25
2022-10-10T10:45:46.126Z,20.24
2022-10-10T10:48:46.147Z,20.52
2022-10-10T10:51:30.277Z,20.62
2022-10-10T10:54:15.076Z,20.85
2022-10-10T10:56:58.876Z,20.83
2022-10-10T11:00:26.010Z,20.88
2022-10-10T11:05:18.838Z,20.99
2022-10-10T11:07:13.887Z,21.28
2022-10-10T11:09:50.224Z,21.23
2022-10-10T11:13:10.915Z,21.11
2022-10-10T11:16:46.877Z,21.23
2022-10-10T11:19:14.348Z,21.36
2022-10-10T11:21:49.383Z,21.44
2022-10-10T11:24:30.714Z,21.49
2022-10-10T11:27:10.054Z,21.42
2022-10-10T11:29:56.880Z,21.44
2022-10-10T11:32:52.539Z,21.48
2022-10-10T11:35:36.152Z,21.74
2022-10-10T11:38:17.265Z,21.59
2022-10-10T11:40:59.622Z,21.76
2022-10-10T11:43:47.516Z,21.79
2022-10-10T11:46:40.338Z,21.66
2022-10-10T11:49:24.060Z,21.56
2022-10-10T11:52:32.922Z,21.91
2022-10-10T11:55:36.540Z,21.76
2022-10-10T11:58:06.498Z,21.90
2022-10-10T12:00:48.663Z,22.01
2022-10-10T12:03:15.723Z,22.06
2022-10-10T12:05:52.830Z,22.26
2022-10-10T12:08:26.206Z,22.12
2022-10-10T12:11:13.738Z,22.31
2022-10-10T12:13:49.684Z,22.23
2022-10-10T12:16:25.751Z,22.36
2022-10-10T12:19:04.105Z,22.05
2022-10-10T12:21:32.089Z,22.02
2022-10-10T12:24:12.324Z,22.30
2022-10-10T12:26:57.530Z,22.38
2022-10-10T12:30:09.491Z,22.46
2022-10-10T12:32:38.426Z,22.43
2022-10-10T12:35:36.874Z,22.55
2022-10-10T12:38:20.371Z,22.38
2022-10-10T12:41:15.081Z,22.52
2022-10-10T12:44:41.577Z,22.78
2022-10-10T12:47:14.301Z,22.84
2022-10-10T12:49:50.996Z,22.91
2022-10-10T12:52:35.671Z,22.68
2022-10-10T12:55:27.790Z,22.69
2022-10-10T12:57:59.290Z,22.77
2022-10-10T13:00:44.736Z,22.65
2022-10-10T13:03:27.705Z,22.56
2022-10-10T13:05:59.076Z,22.52
2022-10-10T13:08:28.836Z,22.34
2022-10-10T13:11:07.736Z,22.60
2022-10-10T13:13:35.213Z,22.78
2022-10-10T13:16:14.522Z,22.74
2022-10-10T13:18:51.186Z,22.83
2022-10-10T13:21:28.181Z,22.98
2022-10-10T13:24:03.665Z,22.65
2022-10-10T13:27:01.130Z,22.83
2022-10-10T13:29:36.191Z,23.01
2022-10-10T13:32:15.894Z,23.25
2022-10-10T13:34:56.962Z,23.10
2022-10-10T13:37:25.138Z,23.10
2022-10-10T13:39:53.723Z,22.81
2022-10-10T13:42:48.514Z,22.73
2022-10-10T13:45:37.994Z,22.85
2022-10-10T13:48:26.433Z,22.80
2022-10-10T13:51:09.744Z,22.87
2022-10-10T13:53:57.162Z,22.89
2022-10-10T13:56:41.315Z,22.87
2022-10-10T13:59:13.120Z,22.83
2022-10-10T14:01:46.153Z,23.00
2022-10-10T14:04:13.033Z,23.01
2022-10-10T14:07:02.270Z,22.88
2022-10-10T14:09:38.665Z,22.98
2022-10-10T14:12:15.559Z,22.95
2022-10-10T14:14:49.153Z,23.12
2022-10-10T14:17:16.994Z,23.27
2022-10-10T14:19:46.366Z,23.17
2022-10-10T14:22:13.517Z,22.95
2022-10-10T14:24:40.546Z,22.93
2022-10-10T14:27:16.524Z,23.12
2022-10-10T14:29:43.618Z,22.92
2022-10-10T14:32:13.455Z,23.04
2022-10-10T14:34:40.810Z,23.17
2022-10-10T14:37:29.029Z,23.26
2022-10-10T14:39:56.513Z,23.23
2022-10-10T14:42:24.817Z,23.19
2022-10-10T14:44:51.828Z,22.75
2022-10-10T14:47:24.713Z,23.00
2022-10-10T14:49:53.442Z,23.02
2022-10-10T14:52:20.643Z,22.75
2022-10-10T14:54:47.610Z,22.74
2022-10-10T14:57:14.885Z,22.71
2022-10-10T14:59:47.955Z,22.65
2022-10-10T15:02:19.163Z,22.53
2022-10-10T15:04:47.436Z,22.62
2022-10-10T15:07:15.370Z,22.59
2022-10-10T15:10:11.192Z,22.52
2022-10-10T15:12:32.595Z,22.50
2022-10-10T15:14:59.554Z,22.45
2022-10-10T15:17:27.263Z,22.34
2022-10-10T15:19:54.230Z,22.58
2022-10-10T15:22:21.194Z,22.46
2022-10-10T15:24:48.083Z,22.47
2022-10-10T15:27:15.038Z,22.46
2022-10-10T15:29:42.009Z,22.21
2022-10-10T15:32:08.978Z,22.17
2022-10-10T15:34:36.211Z,22.07
2022-10-10T15:37:03.945Z,22.10
2022-10-10T15:39:31.415Z,22.11
2022-10-10T15:41:59.606Z,22.04
2022-10-10T15:44:34.071Z,22.00
2022-10-10T15:47:01.001Z,21.98
2022-10-10T15:49:28.011Z,21.90
2022-10-10T15:51:54.984Z,21.83
2022-10-10T15:54:21.939Z,21.85
2022-10-10T15:56:48.852Z,21.81
2022-10-10T15:59:15.806Z,21.62
2022-10-10T16:01:42.718Z,21.46
2022-10-10T16:04:10.864Z,21.38
2022-10-10T16:06:37.839Z,21.22
2022-10-10T16:09:26.652Z,21.04
2022-10-10T16:11:51.881Z,20.92
2022-10-10T16:14:18.939Z,20.65
2022-10-10T16:16:45.911Z,20.56
2022-10-10T16:19:12.878Z,20.59
2022-10-10T16:21:39.862Z,20.44
2022-10-10T16:24:07.269Z,20.26
2022-10-10T16:26:35.471Z,20.06
2022-10-10T16:29:04.486Z,19.85
2022-10-10T16:31:32.208Z,19.70
2022-10-10T16:34:01.642Z,19.48
2022-10-10T16:36:33.047Z,19.50
2022-10-10T16:39:00.094Z,19.49
2022-10-10T16:41:49.542Z,19.56
2022-10-10T16:44:18.064Z,19.46
2022-10-10T16:46:45.203Z,19.40
2022-10-10T16:49:16.974Z,19.30
2022-10-10T16:51:43.922Z,19.14
2022-10-10T16:54:11.017Z,19.05
2022-10-10T16:56:38.278Z,18.91
2022-10-10T16:59:05.880Z,18.80
2022-10-10T17:01:32.904Z,18.65
2022-10-10T17:04:01.628Z,18.67
2022-10-10T17:06:34.876Z,18.52
2022-10-10T17:09:03.162Z,18.45
2022-10-10T17:11:30.130Z,18.40
2022-10-10T17:13:57.363Z,18.28
2022-10-10T17:19:15.058Z,18.15
2022-10-10T17:21:41.969Z,18.13
2022-10-10T17:24:08.926Z,18.17
2022-10-10T17:26:35.855Z,18.08
2022-10-10T17:29:03.083Z,18.15
2022-10-10T17:31:30.154Z,18.36
2022-10-10T17:33:57.688Z,18.40
2022-10-10T17:36:27.459Z,18.39
2022-10-10T17:39:00.251Z,18.23
2022-10-10T17:41:27.899Z,18.08
2022-10-10T17:43:55.231Z,18.21
2022-10-10T17:46:36.199Z,18.03
2022-10-10T17:49:06.086Z,18.09
2022-10-10T17:51:34.316Z,18.05
2022-10-10T17:54:03.003Z,17.87
2022-10-10T17:56:30.515Z,17.74
2022-10-10T17:58:59.631Z,17.68
2022-10-10T18:01:28.888Z,17.65
2022-10-10T18:03:55.921Z,17.70
2022-10-10T18:06:23.820Z,17.94
2022-10-10T18:08:53.190Z,18.28
2022-10-10T18:11:25.116Z,18.18
2022-10-10T18:13:52.559Z,18.19
2022-10-10T18:16:22.870Z,17.82
2022-10-10T18:18:51.925Z,17.38
2022-10-10T18:21:22.442Z,17.37
2022-10-10T18:23:50.396Z,17.58
2022-10-10T18:26:24.392Z,17.82
2022-10-10T18:28:52.626Z,17.89
2022-10-10T18:31:28.614Z,17.99
2022-10-10T18:33:55.939Z,18.11
2022-10-10T18:36:30.211Z,18.33
2022-10-10T18:39:04.559Z,18.28
2022-10-10T18:41:34.852Z,18.05
2022-10-10T18:44:09.846Z,18.13
2022-10-10T18:46:37.235Z,18.17
2022-10-10T18:49:08.765Z,17.86
2022-10-10T18:51:37.123Z,17.84
2022-10-10T18:54:08.362Z,18.07
2022-10-10T18:56:38.047Z,18.18
2022-10-10T18:59:10.170Z,18.15
2022-10-10T19:01:39.864Z,18.10
2022-10-10T19:04:09.793Z,18.03
2022-10-10T19:06:38.710Z,17.98
2022-10-10T19:09:10.419Z,18.06
2022-10-10T19:11:40.331Z,18.10
2022-10-10T19:14:14.821Z,17.98
2022-10-10T19:16:43.451Z,17.87
2022-10-10T19:19:14.784Z,18.10
2022-10-10T19:21:42.072Z,18.02
2022-10-10T19:24:10.496Z,18.04
2022-10-10T19:26:37.439Z,18.04
2022-10-10T19:29:07.608Z,18.10
2022-10-10T19:31:38.451Z,18.26
2022-10-10T19:34:05.396Z,18.28
2022-10-10T19:36:32.530Z,18.26
2022-10-10T19:39:00.628Z,18.19
2022-10-10T19:41:28.526Z,18.14
2022-10-10T19:43:58.026Z,18.18
2022-10-10T19:46:26.939Z,18.22
2022-10-10T19:48:58.147Z,18.23
2022-10-10T19:51:28.551Z,18.22
2022-10-10T19:53:56.427Z,18.11
2022-10-10T19:56:25.826Z,18.26
2022-10-10T19:58:59.252Z,18.29
2022-10-10T20:01:29.962Z,18.23
2022-10-10T20:03:58.493Z,18.20
2022-10-10T20:06:26.463Z,18.21
2022-10-10T20:08:53.833Z,18.24
2022-10-10T20:11:21.141Z,18.10
2022-10-10T20:13:53.129Z,18.13
2022-10-10T20:16:21.395Z,18.01
2022-10-10T20:18:48.471Z,17.80
2022-10-10T20:21:22.956Z,17.91
2022-10-10T20:23:50.437Z,17.78
2022-10-10T20:26:21.390Z,17.82
2022-10-10T20:28:50.994Z,18.13
2022-10-10T20:31:30.104Z,18.11
2022-10-10T20:34:00.828Z,18.16
2022-10-10T20:36:30.431Z,18.03
2022-10-10T20:39:04.949Z,17.92
2022-10-10T20:41:33.991Z,18.04
2022-10-10T20:44:03.543Z,17.87
2022-10-10T20:46:35.357Z,17.74
2022-10-10T20:49:05.982Z,17.61
2022-10-10T20:51:33.012Z,16.36
2022-10-10T20:54:03.876Z,16.83
2022-10-10T20:56:32.699Z,16.79
2022-10-10T20:59:00.350Z,16.50
2022-10-10T21:01:29.565Z,16.39
2022-10-10T21:03:57.316Z,16.53
2022-10-10T21:06:29.302Z,16.57
2022-10-10T21:08:56.257Z,16.58
2022-10-10T21:11:24.166Z,16.56
2022-10-10T21:13:56.372Z,16.40
2022-10-10T21:16:27.076Z,16.62
2022-10-10T21:18:57.928Z,16.76
2022-10-10T21:21:27.532Z,16.78
2022-10-10T21:23:56.508Z,16.79
2022-10-10T21:26:26.372Z,16.70
2022-10-10T21:28:54.730Z,16.73
2022-10-10T21:31:24.424Z,16.77
2022-10-10T21:33:51.801Z,16.74
2022-10-10T21:36:20.509Z,16.75
2022-10-10T21:38:47.382Z,16.87
2022-10-10T21:41:19.354Z,16.79
2022-10-10T21:43:51.599Z,16.76
2022-10-10T21:46:27.739Z,16.68
2022-10-10T21:48:55.646Z,16.63
2022-10-10T21:51:22.923Z,16.67
2022-10-10T21:53:50.136Z,16.74
2022-10-10T21:56:18.076Z,16.98
2022-10-10T21:58:45.302Z,16.84
2022-10-10T22:01:20.517Z,16.75
2022-10-10T22:03:50.392Z,16.75
2022-10-10T22:06:21.620Z,16.67
2022-10-10T22:08:50.128Z,16.58
2022-10-10T22:11:20.816Z,16.47
2022-10-10T22:13:48.616Z,16.49
2022-10-10T22:16:15.687Z,16.29
2022-10-10T22:18:43.060Z,16.31
2022-10-10T22:21:14.235Z,16.40
2022-10-10T22:23:42.451Z,16.37
2022-10-10T22:26:13.055Z,16.27
2022-10-10T22:28:40.644Z,16.43
2022-10-10T22:31:11.137Z,16.31
2022-10-10T22:33:38.287Z,16.46
2022-10-10T22:36:06.983Z,16.42
2022-10-10T22:38:42.179Z,16.31
2022-10-10T22:41:10.115Z,16.36
2022-10-10T22:43:37.463Z,16.35
2022-10-10T22:46:05.175Z,16.36
2022-10-10T22:48:32.468Z,16.34
2022-10-10T22:51:11.016Z,16.36
2022-10-10T22:53:40.392Z,16.36
2022-10-10T22:56:08.987Z,16.30
2022-10-10T22:58:36.790Z,16.36
2022-10-10T23:01:07.125Z,16.37
2022-10-10T23:03:34.065Z,16.42
2022-10-10T23:06:02.040Z,16.45
2022-10-10T23:08:29.417Z,16.40
2022-10-10T23:10:56.558Z,16.42
2022-10-10T23:13:23.610Z,16.38
2022-10-10T23:15:51.460Z,16.31
2022-10-10T23:18:18.447Z,16.27
2022-10-10T23:20:47.301Z,16.13
2022-10-10T23:23:16.370Z,16.02
2022-10-10T23:25:45.393Z,16.08
2022-10-10T23:28:14.712Z,16.16
2022-10-10T23:30:44.295Z,16.07
2022-10-10T23:33:12.085Z,15.59
2022-10-10T23:35:39.059Z,15.61
2022-10-10T23:38:06.357Z,15.42
2022-10-10T23:40:34.058Z,15.41
2022-10-10T23:43:01.165Z,15.54
2022-10-10T23:45:28.111Z,15.57
2022-10-10T23:47:55.108Z,15.63
2022-10-10T23:50:22.194Z,15.58
2022-10-10T23:52:49.149Z,15.70
2022-10-10T23:55:16.114Z,15.72
2022-10-10T23:57:44.167Z,15.79
